Time;durP1;ratioP1;P1;durP2;ratioP2;P2;SDS_P1;SDS_P2;PMS_P1;PMS_P2;Temp;Humidity;BMP_temperature;BMP_pressure;BME280_temperature;BME280_humidity;BME280_pressure;Samples;Min_cycle;Max_cycle;Signal;HPM_P1;HPM_P2
2022/05/11 00:00:22;;;;;;;2.33;2.20;;;;;;;;;;5055910;28;20450;-71
2022/05/11 00:02:49;;;;;;;3.13;2.40;;;;;;;;;;5055864;28;20821;-71
2022/05/11 00:05:17;;;;;;;4.13;2.50;;;;;;;;;;5055511;28;20959;-71
2022/05/11 00:07:44;;;;;;;7.10;2.53;;;;;;;;;;5055664;28;20438;-71
2022/05/11 00:10:12;;;;;;;3.83;2.60;;;;;;;;;;5055734;28;20446;-71
2022/05/11 00:12:40;;;;;;;3.03;2.30;;;;;;;;;;5055643;28;20525;-72
2022/05/11 00:15:10;;;;;;;3.27;2.20;;;;;;;;;;5055213;28;20483;-71
2022/05/11 00:17:37;;;;;;;2.73;2.37;;;;;;;;;;5055817;28;20452;-71
2022/05/11 00:20:06;;;;;;;4.13;2.40;;;;;;;;;;5055212;28;20437;-71
2022/05/11 00:22:33;;;;;;;5.80;2.80;;;;;;;;;;5055388;28;20797;-71
2022/05/11 00:25:00;;;;;;;4.67;2.80;;;;;;;;;;5055157;28;20795;-71
2022/05/11 00:27:28;;;;;;;3.53;2.40;;;;;;;;;;5055351;28;20798;-71
2022/05/11 00:29:55;;;;;;;3.23;2.10;;;;;;;;;;5055303;28;20434;-71
2022/05/11 00:32:25;;;;;;;3.57;2.60;;;;;;;;;;5055264;28;20450;-71
2022/05/11 00:34:52;;;;;;;2.70;2.50;;;;;;;;;;5054937;28;20930;-71
2022/05/11 00:37:20;;;;;;;2.80;2.40;;;;;;;;;;5054885;28;20447;-71
2022/05/11 00:39:47;;;;;;;2.47;2.30;;;;;;;;;;5055189;28;20445;-71
2022/05/11 00:42:14;;;;;;;2.67;2.30;;;;;;;;;;5055069;28;20450;-71
2022/05/11 00:44:42;;;;;;;4.03;2.90;;;;;;;;;;5054769;28;20439;-71
2022/05/11 00:47:12;;;;;;;3.50;2.80;;;;;;;;;;5054651;28;20953;-70
2022/05/11 00:49:40;;;;;;;3.20;2.43;;;;;;;;;;5054984;28;20449;-70
2022/05/11 00:52:12;;;;;;;4.10;2.50;;;;;;;;;;5054553;28;20451;-70
2022/05/11 00:54:42;;;;;;;3.23;2.93;;;;;;;;;;5055084;28;20444;-71
2022/05/11 00:57:14;;;;;;;4.90;2.87;;;;;;;;;;5054692;28;20489;-70
2022/05/11 00:59:43;;;;;;;2.93;2.30;;;;;;;;;;5054551;28;20522;-71
2022/05/11 01:02:11;;;;;;;5.10;2.40;;;;;;;;;;5054308;28;20473;-70
2022/05/11 01:04:39;;;;;;;3.90;2.70;;;;;;;;;;5054737;28;20801;-71
2022/05/11 01:07:09;;;;;;;3.13;2.53;;;;;;;;;;5054328;28;20451;-71
2022/05/11 01:09:36;;;;;;;3.30;2.43;;;;;;;;;;5054202;28;20951;-71
2022/05/11 01:12:06;;;;;;;4.40;2.70;;;;;;;;;;5054548;28;20889;-71
2022/05/11 01:14:35;;;;;;;3.07;2.50;;;;;;;;;;5054067;28;20958;-71
2022/05/11 01:17:02;;;;;;;4.53;2.97;;;;;;;;;;5054025;28;21009;-71
2022/05/11 01:19:32;;;;;;;5.30;2.53;;;;;;;;;;5054234;28;20435;-71
2022/05/11 01:22:03;;;;;;;2.80;2.60;;;;;;;;;;5054323;28;20450;-71
2022/05/11 01:24:35;;;;;;;2.87;2.67;;;;;;;;;;5053997;28;20435;-71
2022/05/11 01:27:17;;;;;;;3.67;2.87;;;;;;;;;;5054378;28;20466;-71
2022/05/11 01:29:44;;;;;;;3.20;2.90;;;;;;;;;;5053324;28;20529;-72
2022/05/11 01:32:12;;;;;;;3.10;2.87;;;;;;;;;;5054507;28;20473;-71
2022/05/11 01:34:39;;;;;;;3.40;3.10;;;;;;;;;;5054017;28;20438;-71
2022/05/11 01:37:06;;;;;;;4.83;2.90;;;;;;;;;;5053737;28;20487;-71
2022/05/11 01:39:35;;;;;;;4.67;2.97;;;;;;;;;;5053939;28;20445;-71
2022/05/11 01:42:02;;;;;;;7.30;3.17;;;;;;;;;;5054465;28;20451;-71
2022/05/11 01:44:29;;;;;;;4.80;2.97;;;;;;;;;;5053890;28;20442;-71
2022/05/11 01:46:59;;;;;;;5.13;2.70;;;;;;;;;;5053980;28;20534;-72
2022/05/11 01:49:27;;;;;;;5.20;3.57;;;;;;;;;;5054015;28;20836;-72
2022/05/11 01:51:54;;;;;;;6.10;3.53;;;;;;;;;;5053811;28;20446;-71
2022/05/11 01:54:22;;;;;;;5.93;3.27;;;;;;;;;;5053744;28;20766;-71
2022/05/11 01:56:50;;;;;;;8.87;3.63;;;;;;;;;;5053653;28;20828;-71
2022/05/11 01:59:18;;;;;;;6.13;3.60;;;;;;;;;;5053311;28;20451;-71
2022/05/11 02:01:45;;;;;;;3.80;3.30;;;;;;;;;;5053720;28;20499;-71
2022/05/11 02:09:40;;;;;;;4.63;3.50;;;;;;;;;;5053406;28;20402;-71
2022/05/11 02:12:10;;;;;;;4.53;4.13;;;;;;;;;;5053560;28;20535;-71
2022/05/11 02:14:37;;;;;;;12.33;3.60;;;;;;;;;;5053106;28;20438;-71
2022/05/11 02:17:04;;;;;;;5.53;3.80;;;;;;;;;;5053136;28;20483;-71
2022/05/11 02:19:32;;;;;;;4.67;3.17;;;;;;;;;;5053107;28;20964;-71
2022/05/11 02:21:59;;;;;;;4.70;3.33;;;;;;;;;;5053496;28;20513;-71
2022/05/11 02:24:26;;;;;;;4.87;4.20;;;;;;;;;;5053081;28;20923;-71
2022/05/11 02:26:54;;;;;;;4.40;4.10;;;;;;;;;;5053441;28;20782;-71
2022/05/11 02:29:23;;;;;;;3.50;3.20;;;;;;;;;;5053745;28;20440;-71
2022/05/11 02:31:51;;;;;;;5.10;4.00;;;;;;;;;;5053668;28;20455;-71
2022/05/11 02:36:59;;;;;;;3.97;3.57;;;;;;;;;;5052214;28;20487;-71
2022/05/11 02:39:26;;;;;;;4.20;3.73;;;;;;;;;;5052883;28;20452;-71
2022/05/11 02:41:54;;;;;;;7.80;4.30;;;;;;;;;;5053265;28;20552;-71
2022/05/11 02:44:22;;;;;;;8.00;4.23;;;;;;;;;;5053458;28;20467;-71
2022/05/11 02:46:50;;;;;;;6.10;3.40;;;;;;;;;;5053221;28;20438;-71
2022/05/11 02:49:18;;;;;;;3.93;3.50;;;;;;;;;;5052853;28;20468;-72
2022/05/11 02:51:45;;;;;;;5.23;3.63;;;;;;;;;;5052907;28;20485;-71
2022/05/11 02:54:12;;;;;;;6.93;3.97;;;;;;;;;;5052771;28;20453;-71
2022/05/11 02:56:41;;;;;;;7.07;3.70;;;;;;;;;;5053070;28;20475;-71
2022/05/11 02:59:08;;;;;;;4.10;3.50;;;;;;;;;;5052764;28;20439;-71
2022/05/11 03:01:36;;;;;;;5.57;4.00;;;;;;;;;;5052779;28;20473;-72
2022/05/11 03:04:04;;;;;;;4.13;3.73;;;;;;;;;;5053135;28;20447;-71
2022/05/11 03:06:31;;;;;;;4.67;3.90;;;;;;;;;;5053114;28;20449;-72
2022/05/11 03:08:59;;;;;;;4.77;4.37;;;;;;;;;;5052900;28;20529;-71
2022/05/11 03:11:26;;;;;;;4.93;3.57;;;;;;;;;;5052708;28;20447;-71
2022/05/11 03:13:53;;;;;;;5.27;3.97;;;;;;;;;;5052627;28;20452;-71
2022/05/11 03:16:20;;;;;;;7.67;4.40;;;;;;;;;;5052605;28;20998;-71
2022/05/11 03:18:49;;;;;;;4.70;3.73;;;;;;;;;;5053091;28;20442;-72
2022/05/11 03:21:16;;;;;;;6.67;3.83;;;;;;;;;;5052821;28;20439;-71
2022/05/11 03:23:43;;;;;;;3.63;3.33;;;;;;;;;;5052874;28;20455;-71
2022/05/11 03:26:14;;;;;;;5.00;3.83;;;;;;;;;;5056516;28;20453;-71
2022/05/11 03:28:41;;;;;;;6.03;4.13;;;;;;;;;;5056834;28;20444;-71
2022/05/11 03:31:08;;;;;;;4.67;4.03;;;;;;;;;;5056213;28;20532;-71
2022/05/11 03:36:22;;;;;;;5.30;3.97;;;;;;;;;;5056115;28;20456;-72
2022/05/11 03:38:50;;;;;;;5.77;4.00;;;;;;;;;;5056020;28;20473;-72
2022/05/11 03:41:17;;;;;;;5.53;3.87;;;;;;;;;;5055872;28;20967;-72
2022/05/11 03:43:45;;;;;;;5.50;4.93;;;;;;;;;;5055933;28;20449;-72
2022/05/11 03:46:12;;;;;;;5.63;4.40;;;;;;;;;;5056107;28;20446;-70
2022/05/11 03:48:39;;;;;;;4.80;4.00;;;;;;;;;;5055816;28;20445;-66
2022/05/11 03:51:06;;;;;;;6.43;4.27;;;;;;;;;;5056205;28;20442;-66
2022/05/11 03:53:35;;;;;;;5.60;4.70;;;;;;;;;;5056046;28;20441;-65
2022/05/11 03:56:02;;;;;;;4.60;3.90;;;;;;;;;;5056021;28;20480;-66
2022/05/11 03:58:30;;;;;;;5.07;4.50;;;;;;;;;;5055416;28;20441;-65
2022/05/11 04:00:57;;;;;;;12.40;5.00;;;;;;;;;;5055669;28;20447;-65
2022/05/11 04:03:24;;;;;;;4.80;4.30;;;;;;;;;;5055932;28;20442;-65
2022/05/11 04:05:51;;;;;;;6.67;4.20;;;;;;;;;;5055710;28;20433;-65
2022/05/11 04:08:18;;;;;;;4.30;3.90;;;;;;;;;;5056106;28;20444;-66
2022/05/11 04:10:47;;;;;;;5.70;4.90;;;;;;;;;;5055635;28;20441;-65
2022/05/11 04:13:14;;;;;;;6.53;4.33;;;;;;;;;;5055306;28;20973;-65
2022/05/11 04:15:41;;;;;;;5.47;4.73;;;;;;;;;;5055290;28;20449;-65
2022/05/11 04:18:08;;;;;;;5.80;4.70;;;;;;;;;;5055507;28;20476;-66
2022/05/11 04:20:36;;;;;;;8.07;4.17;;;;;;;;;;5055130;28;20893;-65
2022/05/11 04:23:03;;;;;;;9.37;4.17;;;;;;;;;;5055891;28;20452;-65
2022/05/11 04:25:30;;;;;;;4.10;3.80;;;;;;;;;;5055779;28;20441;-66
2022/05/11 04:27:58;;;;;;;5.60;4.17;;;;;;;;;;5054988;28;20512;-66
2022/05/11 04:30:31;;;;;;;7.60;5.53;;;;;;;;;;5055560;28;20450;-66
2022/05/11 04:32:58;;;;;;;6.07;4.37;;;;;;;;;;5055794;28;20443;-66
2022/05/11 04:35:30;;;;;;;4.47;4.07;;;;;;;;;;5054808;28;20445;-66
2022/05/11 04:37:57;;;;;;;7.00;4.70;;;;;;;;;;5055226;28;20469;-65
2022/05/11 04:40:24;;;;;;;7.47;4.73;;;;;;;;;;5055057;28;20434;-65
2022/05/11 04:42:51;;;;;;;5.13;4.17;;;;;;;;;;5055058;28;20777;-66
2022/05/11 04:45:20;;;;;;;6.73;3.80;;;;;;;;;;5054929;28;20441;-65
2022/05/11 04:47:47;;;;;;;4.27;3.87;;;;;;;;;;5054694;28;20478;-65
2022/05/11 04:50:16;;;;;;;4.70;4.20;;;;;;;;;;5054529;28;20928;-65
2022/05/11 04:52:44;;;;;;;4.33;4.00;;;;;;;;;;5054961;28;20474;-66
2022/05/11 04:55:12;;;;;;;5.07;4.47;;;;;;;;;;5054803;28;20470;-66
2022/05/11 04:57:40;;;;;;;4.67;3.80;;;;;;;;;;5054212;28;20477;-66
2022/05/11 05:00:10;;;;;;;3.90;3.60;;;;;;;;;;5054710;28;20544;-66
2022/05/11 05:02:39;;;;;;;7.70;3.93;;;;;;;;;;5054629;28;20479;-65
2022/05/11 05:05:09;;;;;;;7.83;4.60;;;;;;;;;;5054356;28;20449;-65
2022/05/11 05:07:37;;;;;;;7.13;4.30;;;;;;;;;;5054151;28;20453;-66
2022/05/11 05:10:04;;;;;;;4.83;3.80;;;;;;;;;;5054451;28;20441;-66
2022/05/11 05:12:32;;;;;;;6.17;4.00;;;;;;;;;;5054459;28;20467;-65
2022/05/11 05:14:59;;;;;;;8.40;4.03;;;;;;;;;;5054108;28;20934;-66
2022/05/11 05:17:27;;;;;;;5.03;4.03;;;;;;;;;;5053975;28;20481;-66
2022/05/11 05:19:55;;;;;;;4.40;3.80;;;;;;;;;;5054657;28;20443;-66
2022/05/11 05:22:23;;;;;;;5.37;3.67;;;;;;;;;;5053923;28;20452;-66
2022/05/11 05:24:50;;;;;;;4.60;4.17;;;;;;;;;;5053986;28;20452;-67
2022/05/11 05:27:18;;;;;;;4.33;3.93;;;;;;;;;;5053890;28;20452;-66
2022/05/11 05:32:37;;;;;;;4.53;4.00;;;;;;;;;;5054088;28;20393;-65
2022/05/11 05:35:06;;;;;;;4.77;3.60;;;;;;;;;;5054217;28;20781;-65
2022/05/11 05:37:34;;;;;;;4.27;3.87;;;;;;;;;;5054132;28;20507;-65
2022/05/11 05:40:02;;;;;;;12.23;4.97;;;;;;;;;;5053725;28;20443;-65
2022/05/11 05:42:30;;;;;;;7.67;6.07;;;;;;;;;;5053532;28;20453;-65
2022/05/11 05:44:57;;;;;;;6.70;5.07;;;;;;;;;;5053613;28;20527;-66
2022/05/11 05:47:25;;;;;;;10.33;4.20;;;;;;;;;;5052842;28;20450;-65
2022/05/11 05:49:52;;;;;;;7.40;4.53;;;;;;;;;;5053249;28;20541;-65
2022/05/11 05:52:22;;;;;;;4.20;3.73;;;;;;;;;;5053743;28;20532;-65
2022/05/11 05:54:50;;;;;;;8.03;6.73;;;;;;;;;;5053459;28;21024;-66
2022/05/11 05:57:18;;;;;;;9.27;4.70;;;;;;;;;;5053218;28;21025;-66
2022/05/11 05:59:45;;;;;;;11.20;4.83;;;;;;;;;;5053759;28;20447;-65
2022/05/11 06:02:14;;;;;;;7.33;5.20;;;;;;;;;;5053743;28;20475;-65
2022/05/11 06:04:41;;;;;;;7.50;4.50;;;;;;;;;;5053523;28;20970;-65
2022/05/11 06:07:08;;;;;;;6.67;4.43;;;;;;;;;;5053256;28;20458;-65
2022/05/11 06:09:38;;;;;;;7.50;4.50;;;;;;;;;;5053452;28;20550;-66
2022/05/11 06:12:05;;;;;;;5.00;4.50;;;;;;;;;;5054030;28;20438;-65
2022/05/11 06:14:33;;;;;;;5.13;3.67;;;;;;;;;;5053492;28;20446;-65
2022/05/11 06:17:01;;;;;;;4.83;4.43;;;;;;;;;;5053316;28;20557;-65
2022/05/11 06:19:29;;;;;;;8.13;4.60;;;;;;;;;;5053560;28;20844;-65
2022/05/11 06:21:56;;;;;;;6.90;4.73;;;;;;;;;;5053483;28;20785;-66
2022/05/11 06:24:23;;;;;;;12.77;5.00;;;;;;;;;;5053160;28;20545;-65
2022/05/11 06:26:52;;;;;;;12.10;4.00;;;;;;;;;;5053620;28;20446;-65
2022/05/11 06:29:19;;;;;;;4.50;4.07;;;;;;;;;;5053378;28;20453;-65
2022/05/11 06:31:46;;;;;;;7.47;5.07;;;;;;;;;;5053378;28;20454;-65
2022/05/11 06:34:15;;;;;;;5.23;4.63;;;;;;;;;;5053055;28;20444;-66
2022/05/11 06:36:44;;;;;;;6.47;5.17;;;;;;;;;;5052918;28;20455;-65
2022/05/11 06:39:12;;;;;;;5.27;3.80;;;;;;;;;;5053405;28;20844;-65
2022/05/11 06:41:39;;;;;;;10.20;4.77;;;;;;;;;;5053168;28;20442;-65
2022/05/11 06:44:09;;;;;;;4.93;4.30;;;;;;;;;;5053105;28;20443;-66
2022/05/11 06:46:37;;;;;;;10.57;4.40;;;;;;;;;;5053344;28;20435;-65
2022/05/11 06:49:04;;;;;;;5.93;4.80;;;;;;;;;;5052825;28;20473;-65
2022/05/11 06:51:31;;;;;;;16.37;5.90;;;;;;;;;;5053193;28;20446;-65
2022/05/11 06:59:33;;;;;;;6.10;4.53;;;;;;;;;;5054127;28;20863;-66
2022/05/11 07:02:03;;;;;;;10.47;5.43;;;;;;;;;;5056536;28;20527;-65
2022/05/11 07:04:33;;;;;;;6.67;4.57;;;;;;;;;;5057005;28;20431;-66
2022/05/11 07:07:00;;;;;;;6.90;4.77;;;;;;;;;;5056965;28;20495;-65
2022/05/11 07:09:29;;;;;;;6.00;4.77;;;;;;;;;;5056521;28;21006;-65
2022/05/11 07:14:43;;;;;;;6.27;4.50;;;;;;;;;;5056730;28;20402;-66
2022/05/11 07:17:10;;;;;;;9.00;4.87;;;;;;;;;;5056632;28;20471;-65
2022/05/11 07:19:37;;;;;;;8.50;4.50;;;;;;;;;;5056195;28;20449;-66
2022/05/11 07:22:04;;;;;;;9.03;4.40;;;;;;;;;;5056544;28;20536;-65
2022/05/11 07:24:31;;;;;;;8.60;4.50;;;;;;;;;;5056160;28;20438;-65
2022/05/11 07:26:59;;;;;;;7.40;5.23;;;;;;;;;;5056538;28;20944;-66
2022/05/11 07:29:27;;;;;;;6.70;4.80;;;;;;;;;;5056459;28;20466;-65
2022/05/11 07:31:56;;;;;;;12.07;4.77;;;;;;;;;;5057133;28;20544;-66
2022/05/11 07:34:23;;;;;;;6.17;4.80;;;;;;;;;;5056347;28;20450;-66
2022/05/11 07:36:54;;;;;;;11.40;5.17;;;;;;;;;;5056269;28;20453;-65
2022/05/11 07:39:21;;;;;;;7.83;4.40;;;;;;;;;;5056471;28;20447;-65
2022/05/11 07:41:48;;;;;;;7.40;4.50;;;;;;;;;;5056252;28;20443;-66
2022/05/11 07:44:16;;;;;;;9.27;5.07;;;;;;;;;;5055900;28;20447;-65
2022/05/11 07:46:43;;;;;;;8.40;5.00;;;;;;;;;;5056103;28;20448;-66
2022/05/11 07:49:12;;;;;;;6.87;4.20;;;;;;;;;;5055978;28;20454;-66
2022/05/11 07:51:41;;;;;;;5.60;4.70;;;;;;;;;;5055987;28;20478;-66
2022/05/11 07:54:08;;;;;;;5.47;4.97;;;;;;;;;;5055530;28;20486;-66
2022/05/11 08:02:06;;;;;;;10.00;6.23;;;;;;;;;;5055807;28;20489;-65
2022/05/11 08:04:34;;;;;;;8.90;6.10;;;;;;;;;;5055526;28;20540;-65
2022/05/11 08:07:01;;;;;;;23.60;5.90;;;;;;;;;;5055827;28;20449;-65
2022/05/11 08:09:29;;;;;;;8.63;5.83;;;;;;;;;;5055405;28;20450;-66
2022/05/11 08:11:56;;;;;;;8.23;5.40;;;;;;;;;;5054591;28;20540;-65
2022/05/11 08:14:23;;;;;;;7.47;6.70;;;;;;;;;;5055567;28;20654;-66
2022/05/11 08:16:52;;;;;;;11.43;6.27;;;;;;;;;;5055131;28;20445;-66
2022/05/11 08:19:19;;;;;;;10.53;6.40;;;;;;;;;;5055606;28;20483;-66
2022/05/11 08:21:49;;;;;;;10.20;6.47;;;;;;;;;;5055304;28;20506;-65
2022/05/11 08:24:16;;;;;;;9.10;6.40;;;;;;;;;;5054951;28;20925;-65
2022/05/11 08:26:46;;;;;;;11.30;5.87;;;;;;;;;;5055087;28;20988;-65
2022/05/11 08:33:18;;;;;;;6.50;5.83;;;;;;;;;;5055284;28;20448;-65
2022/05/11 08:34:47;;;;;;;6.70;5.07;;;;;;;;;;5055172;28;20413;-66
2022/05/11 08:37:16;;;;;;;4.93;4.17;;;;;;;;;;5055166;28;20987;-66
2022/05/11 08:39:43;;;;;;;9.47;4.90;;;;;;;;;;5054841;28;20804;-67
2022/05/11 08:42:11;;;;;;;7.00;4.83;;;;;;;;;;5055800;28;20520;-66
2022/05/11 08:44:39;;;;;;;6.00;5.03;;;;;;;;;;5055173;28;20532;-66
2022/05/11 08:47:10;;;;;;;7.57;4.43;;;;;;;;;;5055031;28;20441;-66
2022/05/11 08:49:44;;;;;;;7.80;4.33;;;;;;;;;;5054655;28;20951;-66
2022/05/11 08:52:16;;;;;;;8.60;5.30;;;;;;;;;;5055030;28;20816;-66
2022/05/11 08:54:46;;;;;;;13.17;5.07;;;;;;;;;;5055133;28;20433;-66
2022/05/11 08:57:25;;;;;;;9.80;4.67;;;;;;;;;;5055662;28;20428;-66
2022/05/11 08:59:53;;;;;;;5.30;4.80;;;;;;;;;;5054621;28;20428;-66
2022/05/11 09:02:22;;;;;;;5.90;4.20;;;;;;;;;;5054611;28;20500;-66
2022/05/11 09:04:51;;;;;;;6.47;5.17;;;;;;;;;;5054339;28;20447;-66
2022/05/11 09:07:18;;;;;;;13.73;5.10;;;;;;;;;;5054971;28;20437;-66
2022/05/11 09:09:48;;;;;;;6.67;4.30;;;;;;;;;;5054501;28;20443;-66
2022/05/11 09:12:15;;;;;;;13.53;4.33;;;;;;;;;;5054532;28;20440;-66
2022/05/11 09:14:44;;;;;;;5.33;4.37;;;;;;;;;;5054562;28;20437;-66
2022/05/11 09:17:21;;;;;;;4.77;3.00;;;;;;;;;;5054179;28;20949;-66
2022/05/11 09:19:48;;;;;;;4.80;4.10;;;;;;;;;;5054418;28;20470;-66
2022/05/11 09:22:17;;;;;;;5.33;4.43;;;;;;;;;;5054208;28;20469;-66
2022/05/11 09:24:46;;;;;;;6.80;4.13;;;;;;;;;;5054122;28;20461;-67
2022/05/11 09:27:24;;;;;;;6.33;4.70;;;;;;;;;;5054434;28;20440;-66
2022/05/11 09:29:57;;;;;;;6.20;3.60;;;;;;;;;;5054330;28;20432;-66
2022/05/11 09:32:29;;;;;;;4.03;3.37;;;;;;;;;;5054338;28;20429;-66
2022/05/11 09:34:58;;;;;;;5.70;4.07;;;;;;;;;;5053994;28;20514;-66
2022/05/11 09:37:28;;;;;;;3.80;3.50;;;;;;;;;;5053777;28;20952;-66
2022/05/11 09:39:56;;;;;;;4.93;2.90;;;;;;;;;;5053714;28;20448;-66
2022/05/11 09:42:32;;;;;;;3.83;3.50;;;;;;;;;;5053686;28;20437;-66
2022/05/11 09:45:00;;;;;;;6.40;3.20;;;;;;;;;;5053733;28;20486;-66
2022/05/11 09:47:29;;;;;;;4.13;3.10;;;;;;;;;;5053952;28;20529;-67
2022/05/11 09:49:57;;;;;;;3.87;2.90;;;;;;;;;;5053573;28;20963;-67
2022/05/11 09:52:32;;;;;;;5.60;3.30;;;;;;;;;;5053859;28;20518;-67
2022/05/11 09:54:59;;;;;;;4.97;3.43;;;;;;;;;;5053840;28;20444;-67
2022/05/11 09:57:29;;;;;;;8.20;3.80;;;;;;;;;;5053465;28;20532;-67
2022/05/11 10:00:16;;;;;;;5.00;3.30;;;;;;;;;;5053521;28;20475;-67
2022/05/11 10:02:45;;;;;;;4.37;3.00;;;;;;;;;;5054150;28;20479;-67
2022/05/11 10:05:14;;;;;;;3.43;3.10;;;;;;;;;;5053579;28;20443;-67
2022/05/11 10:07:46;;;;;;;5.70;3.10;;;;;;;;;;5053547;28;20444;-67
2022/05/11 10:10:14;;;;;;;4.53;3.30;;;;;;;;;;5053243;28;20432;-67
2022/05/11 10:12:44;;;;;;;6.93;3.23;;;;;;;;;;5053490;28;20438;-67
2022/05/11 10:24:08;;;;;;;4.60;3.53;;;;;;;;;;4992088;28;20785;-67
2022/05/11 10:26:40;;;;;;;3.20;2.83;;;;;;;;;;5035837;28;20960;-67
2022/05/11 10:29:16;;;;;;;9.47;3.87;;;;;;;;;;5053833;28;20453;-67
2022/05/11 10:31:47;;;;;;;3.43;3.00;;;;;;;;;;5052996;28;20488;-66
2022/05/11 10:34:19;;;;;;;4.17;3.43;;;;;;;;;;5054417;28;20433;-66
2022/05/11 10:36:51;;;;;;;5.07;2.97;;;;;;;;;;5057268;28;20433;-67
2022/05/11 10:39:22;;;;;;;7.43;3.30;;;;;;;;;;5057544;28;20556;-66
2022/05/11 10:41:52;;;;;;;4.10;3.00;;;;;;;;;;5057540;28;20433;-66
2022/05/11 10:44:29;;;;;;;4.90;3.20;;;;;;;;;;5057889;28;20440;-67
2022/05/11 10:47:01;;;;;;;3.43;3.10;;;;;;;;;;5057059;28;20425;-66
2022/05/11 10:49:35;;;;;;;6.13;3.80;;;;;;;;;;5057395;28;20434;-67
2022/05/11 10:52:13;;;;;;;4.90;3.40;;;;;;;;;;5057078;28;20431;-67
2022/05/11 10:54:46;;;;;;;4.80;3.40;;;;;;;;;;5057247;28;20437;-67
2022/05/11 10:57:17;;;;;;;3.80;3.50;;;;;;;;;;5057222;28;20426;-67
2022/05/11 10:59:53;;;;;;;5.83;3.33;;;;;;;;;;5057360;28;20565;-67
2022/05/11 11:02:38;;;;;;;5.70;4.10;;;;;;;;;;5056658;28;20471;-67
2022/05/11 11:05:09;;;;;;;6.10;3.70;;;;;;;;;;5057054;28;20837;-67
2022/05/11 11:07:39;;;;;;;5.73;4.63;;;;;;;;;;5056878;28;20428;-66
2022/05/11 11:10:19;;;;;;;11.37;3.87;;;;;;;;;;5056883;28;20426;-67
2022/05/11 11:12:55;;;;;;;3.70;3.37;;;;;;;;;;5056871;28;20459;-67
2022/05/11 11:15:32;;;;;;;4.83;3.90;;;;;;;;;;5056895;28;20433;-67
2022/05/11 11:17:59;;;;;;;8.43;3.73;;;;;;;;;;5057170;28;20500;-66
2022/05/11 11:20:27;;;;;;;6.03;3.70;;;;;;;;;;5056372;28;20475;-66
2022/05/11 11:23:06;;;;;;;6.73;3.00;;;;;;;;;;5056325;28;20446;-67
2022/05/11 11:25:47;;;;;;;3.43;3.10;;;;;;;;;;5056240;28;20445;-66
2022/05/11 11:28:15;;;;;;;5.30;3.60;;;;;;;;;;5056108;28;20481;-66
2022/05/11 11:31:05;;;;;;;6.77;3.57;;;;;;;;;;5056398;28;20981;-66
2022/05/11 11:33:33;;;;;;;7.03;4.80;;;;;;;;;;5056322;28;20456;-66
2022/05/11 11:36:01;;;;;;;6.87;3.67;;;;;;;;;;5055891;28;21025;-70
2022/05/11 11:38:30;;;;;;;6.00;3.13;;;;;;;;;;5056256;28;20471;-69
2022/05/11 11:41:12;;;;;;;3.83;3.30;;;;;;;;;;5055892;28;20438;-69
2022/05/11 11:43:45;;;;;;;3.60;2.80;;;;;;;;;;5056321;28;20440;-69
2022/05/11 11:46:28;;;;;;;3.77;3.10;;;;;;;;;;5055779;28;20434;-69
2022/05/11 11:49:02;;;;;;;8.03;3.60;;;;;;;;;;5056142;28;20451;-69
2022/05/11 11:51:35;;;;;;;4.77;3.70;;;;;;;;;;5056073;28;20426;-70
2022/05/11 11:54:02;;;;;;;5.30;3.27;;;;;;;;;;5055729;28;20529;-69
2022/05/11 11:56:37;;;;;;;4.63;3.13;;;;;;;;;;5055956;28;20473;-69
2022/05/11 11:59:07;;;;;;;4.23;3.40;;;;;;;;;;5056054;28;20477;-70
2022/05/11 12:01:37;;;;;;;3.40;2.70;;;;;;;;;;5055724;28;20830;-69
2022/05/11 12:04:07;;;;;;;3.30;2.70;;;;;;;;;;5056159;28;20849;-69
2022/05/11 12:15:14;;;;;;;4.40;2.77;;;;;;;;;;5055551;28;20400;-70
2022/05/11 12:17:43;;;;;;;3.73;2.10;;;;;;;;;;5055599;28;20790;-70
2022/05/11 12:20:12;;;;;;;3.23;3.03;;;;;;;;;;5055535;28;20486;-69
2022/05/11 12:22:44;;;;;;;6.13;2.60;;;;;;;;;;5055585;28;20593;-69
2022/05/11 12:25:26;;;;;;;5.03;2.90;;;;;;;;;;5055503;28;20447;-69
2022/05/11 12:27:54;;;;;;;4.70;2.97;;;;;;;;;;5055933;28;20496;-70
2022/05/11 12:30:23;;;;;;;8.03;2.77;;;;;;;;;;5055502;28;20451;-69
2022/05/11 12:32:53;;;;;;;3.90;2.40;;;;;;;;;;5055624;28;20895;-69
2022/05/11 12:35:21;;;;;;;5.83;2.30;;;;;;;;;;5055408;28;20494;-70
2022/05/11 12:37:54;;;;;;;7.30;2.50;;;;;;;;;;5055208;28;20437;-70
2022/05/11 12:40:23;;;;;;;4.43;2.20;;;;;;;;;;5054905;28;20579;-69
2022/05/11 12:42:52;;;;;;;2.70;2.43;;;;;;;;;;5054740;28;20448;-70
2022/05/11 12:45:21;;;;;;;2.50;2.30;;;;;;;;;;5054581;28;20442;-69
2022/05/11 12:47:50;;;;;;;2.70;2.50;;;;;;;;;;5055131;28;20496;-69
2022/05/11 12:50:20;;;;;;;4.70;2.60;;;;;;;;;;5054897;28;20462;-69
2022/05/11 12:53:00;;;;;;;7.13;2.50;;;;;;;;;;5054506;28;20534;-69
2022/05/11 12:55:31;;;;;;;4.70;2.40;;;;;;;;;;5054925;28;20432;-69
2022/05/11 12:57:58;;;;;;;2.60;2.40;;;;;;;;;;5053896;28;20433;-69
2022/05/11 13:00:26;;;;;;;3.90;2.53;;;;;;;;;;5054479;28;20490;-69
2022/05/11 13:02:55;;;;;;;5.67;2.13;;;;;;;;;;5055011;28;20523;-69
2022/05/11 13:05:25;;;;;;;3.50;2.90;;;;;;;;;;5054757;28;20936;-70
2022/05/11 13:07:53;;;;;;;5.00;2.50;;;;;;;;;;5054196;28;20449;-70
2022/05/11 13:10:23;;;;;;;3.23;2.27;;;;;;;;;;5054265;28;20938;-70
2022/05/11 13:12:52;;;;;;;9.70;2.90;;;;;;;;;;5054379;28;20451;-69
2022/05/11 13:15:36;;;;;;;3.70;2.50;;;;;;;;;;5054396;28;20435;-70
2022/05/11 13:18:04;;;;;;;2.20;2.00;;;;;;;;;;5054745;28;20432;-69
2022/05/11 13:20:37;;;;;;;5.63;2.20;;;;;;;;;;5054659;28;20488;-69
2022/05/11 13:23:07;;;;;;;8.00;2.50;;;;;;;;;;5054326;28;20430;-69
2022/05/11 13:25:39;;;;;;;2.20;2.10;;;;;;;;;;5054192;28;20496;-69
2022/05/11 13:28:10;;;;;;;4.37;2.30;;;;;;;;;;5054202;28;20459;-69
2022/05/11 13:30:46;;;;;;;4.43;2.80;;;;;;;;;;5054085;28;20561;-69
2022/05/11 13:33:31;;;;;;;2.30;2.10;;;;;;;;;;5054640;28;20451;-69
2022/05/11 13:36:08;;;;;;;7.13;2.70;;;;;;;;;;5054563;28;20449;-70
2022/05/11 13:38:36;;;;;;;8.80;2.80;;;;;;;;;;5053995;28;20433;-70
2022/05/11 13:41:04;;;;;;;3.20;2.10;;;;;;;;;;5053659;28;21003;-69
2022/05/11 13:43:33;;;;;;;4.20;2.00;;;;;;;;;;5053934;28;20442;-69
2022/05/11 13:46:01;;;;;;;3.30;2.30;;;;;;;;;;5053759;28;20519;-69
2022/05/11 13:48:29;;;;;;;3.77;2.40;;;;;;;;;;5053459;28;20450;-69
2022/05/11 13:51:08;;;;;;;5.83;4.07;;;;;;;;;;5053896;28;20457;-69
2022/05/11 13:53:36;;;;;;;3.20;2.20;;;;;;;;;;5054315;28;20461;-70
2022/05/11 13:56:06;;;;;;;4.80;2.23;;;;;;;;;;5053452;28;20498;-70
2022/05/11 13:58:34;;;;;;;4.30;2.87;;;;;;;;;;5053600;28;20446;-70
2022/05/11 14:01:02;;;;;;;3.93;2.13;;;;;;;;;;5053534;28;20486;-70
2022/05/11 14:03:33;;;;;;;3.80;2.50;;;;;;;;;;5053414;28;20906;-69
2022/05/11 14:06:00;;;;;;;4.43;2.20;;;;;;;;;;5053555;28;20935;-70
2022/05/11 14:08:29;;;;;;;4.00;2.07;;;;;;;;;;5052853;28;20449;-70
2022/05/11 14:10:56;;;;;;;3.87;2.70;;;;;;;;;;5053396;28;20449;-70
2022/05/11 14:13:23;;;;;;;4.33;1.97;;;;;;;;;;5053451;28;20444;-70
2022/05/11 14:15:51;;;;;;;5.63;3.10;;;;;;;;;;5052941;28;20454;-70
2022/05/11 14:18:20;;;;;;;3.67;1.90;;;;;;;;;;5053610;28;20499;-69
2022/05/11 14:20:48;;;;;;;5.60;2.53;;;;;;;;;;5052969;28;20946;-65
2022/05/11 14:23:16;;;;;;;2.57;2.17;;;;;;;;;;5053682;28;20443;-67
2022/05/11 14:25:45;;;;;;;3.20;1.70;;;;;;;;;;5053487;28;20435;-67
2022/05/11 14:28:12;;;;;;;3.90;2.60;;;;;;;;;;5052316;28;20452;-68
2022/05/11 14:30:40;;;;;;;2.83;2.40;;;;;;;;;;5052813;28;20423;-68
2022/05/11 14:33:08;;;;;;;4.17;2.23;;;;;;;;;;5053270;28;20445;-67
2022/05/11 14:35:35;;;;;;;8.47;2.50;;;;;;;;;;5053172;28;20532;-67
2022/05/11 14:38:04;;;;;;;3.50;2.17;;;;;;;;;;5052786;28;20454;-68
2022/05/11 14:40:31;;;;;;;6.87;2.10;;;;;;;;;;5052545;28;20481;-68
2022/05/11 14:43:00;;;;;;;1.90;1.80;;;;;;;;;;5053072;28;20430;-67
2022/05/11 14:45:27;;;;;;;5.00;2.13;;;;;;;;;;5052911;28;20450;-67
2022/05/11 14:47:57;;;;;;;2.20;2.00;;;;;;;;;;5052753;28;20925;-67
2022/05/11 14:50:25;;;;;;;4.00;2.63;;;;;;;;;;5052715;28;20429;-67
2022/05/11 14:52:55;;;;;;;2.90;1.87;;;;;;;;;;5052727;28;20533;-67
2022/05/11 14:55:22;;;;;;;7.10;3.07;;;;;;;;;;5052770;28;20425;-67
2022/05/11 15:03:22;;;;;;;3.30;1.80;;;;;;;;;;5052554;28;20381;-67
2022/05/11 15:05:50;;;;;;;2.10;1.60;;;;;;;;;;5052501;28;20419;-68
2022/05/11 15:08:17;;;;;;;2.87;2.60;;;;;;;;;;5053353;28;20509;-67
2022/05/11 15:10:44;;;;;;;5.13;1.93;;;;;;;;;;5052382;28;20962;-67
2022/05/11 15:15:58;;;;;;;2.67;2.03;;;;;;;;;;5052420;28;20408;-68
2022/05/11 15:18:27;;;;;;;5.53;2.00;;;;;;;;;;5052650;28;20416;-68
2022/05/11 15:20:54;;;;;;;2.83;2.03;;;;;;;;;;5054293;28;20460;-67
2022/05/11 15:23:21;;;;;;;6.87;2.80;;;;;;;;;;5056384;28;20507;-67
2022/05/11 15:25:49;;;;;;;8.00;2.97;;;;;;;;;;5056427;28;20429;-68
2022/05/11 15:28:17;;;;;;;3.10;2.20;;;;;;;;;;5056320;28;20448;-67
2022/05/11 15:30:45;;;;;;;7.50;2.33;;;;;;;;;;5056263;28;20428;-67
2022/05/11 15:33:16;;;;;;;3.20;2.50;;;;;;;;;;5056379;28;20869;-67
2022/05/11 15:35:43;;;;;;;2.13;1.93;;;;;;;;;;5056490;28;20415;-67
2022/05/11 15:38:11;;;;;;;4.30;2.40;;;;;;;;;;5056450;28;20536;-67
2022/05/11 15:40:38;;;;;;;4.30;2.50;;;;;;;;;;5056257;28;20449;-67
2022/05/11 15:43:06;;;;;;;2.90;2.10;;;;;;;;;;5056424;28;20445;-68
2022/05/11 15:45:34;;;;;;;2.90;2.00;;;;;;;;;;5056436;28;20441;-68
2022/05/11 15:48:03;;;;;;;5.53;3.30;;;;;;;;;;5055776;28;20421;-67
2022/05/11 15:50:32;;;;;;;4.50;2.30;;;;;;;;;;5055927;28;20423;-67